sensor_id;sensor_type;location;lat;lon;timestamp;temperature;humidity
1351;DHT22;669;50.206;9.998;2023-11-19T00:00:28;5.30;53.60
1351;DHT22;669;50.206;9.998;2023-11-19T00:02:56;5.30;53.70
1351;DHT22;669;50.206;9.998;2023-11-19T00:05:26;5.40;53.90
1351;DHT22;669;50.206;9.998;2023-11-19T00:07:54;5.40;53.80
1351;DHT22;669;50.206;9.998;2023-11-19T00:10:22;5.40;53.80
1351;DHT22;669;50.206;9.998;2023-11-19T00:12:50;5.40;53.90
1351;DHT22;669;50.206;9.998;2023-11-19T00:15:18;5.40;53.90
1351;DHT22;669;50.206;9.998;2023-11-19T00:17:47;5.40;53.90
1351;DHT22;669;50.206;9.998;2023-11-19T00:20:17;5.40;54.00
1351;DHT22;669;50.206;9.998;2023-11-19T00:22:47;5.40;54.00
1351;DHT22;669;50.206;9.998;2023-11-19T00:25:20;5.40;54.00
1351;DHT22;669;50.206;9.998;2023-11-19T00:27:48;5.50;54.10
1351;DHT22;669;50.206;9.998;2023-11-19T00:30:17;5.40;54.00
1351;DHT22;669;50.206;9.998;2023-11-19T00:32:45;5.40;54.10
1351;DHT22;669;50.206;9.998;2023-11-19T00:35:14;5.50;54.20
1351;DHT22;669;50.206;9.998;2023-11-19T00:37:42;5.50;54.30
1351;DHT22;669;50.206;9.998;2023-11-19T00:40:14;5.50;54.30
1351;DHT22;669;50.206;9.998;2023-11-19T00:42:43;5.50;54.30
1351;DHT22;669;50.206;9.998;2023-11-19T00:45:11;5.50;54.30
1351;DHT22;669;50.206;9.998;2023-11-19T00:47:40;5.50;54.30
1351;DHT22;669;50.206;9.998;2023-11-19T00:50:09;5.50;54.30
1351;DHT22;669;50.206;9.998;2023-11-19T00:52:37;5.50;54.30
1351;DHT22;669;50.206;9.998;2023-11-19T00:55:06;5.50;54.40
1351;DHT22;669;50.206;9.998;2023-11-19T00:57:36;5.50;54.40
1351;DHT22;669;50.206;9.998;2023-11-19T01:00:05;5.50;54.40
1351;DHT22;669;50.206;9.998;2023-11-19T01:02:45;5.50;54.40
1351;DHT22;669;50.206;9.998;2023-11-19T01:05:16;5.40;54.40
1351;DHT22;669;50.206;9.998;2023-11-19T01:07:48;5.50;54.50
1351;DHT22;669;50.206;9.998;2023-11-19T01:10:17;5.50;54.50
1351;DHT22;669;50.206;9.998;2023-11-19T01:12:46;5.50;54.50
1351;DHT22;669;50.206;9.998;2023-11-19T01:15:14;5.50;54.50
1351;DHT22;669;50.206;9.998;2023-11-19T01:17:45;5.50;54.50
1351;DHT22;669;50.206;9.998;2023-11-19T01:20:16;5.50;54.50
1351;DHT22;669;50.206;9.998;2023-11-19T01:22:44;5.50;54.60
1351;DHT22;669;50.206;9.998;2023-11-19T01:25:12;5.50;54.60
1351;DHT22;669;50.206;9.998;2023-11-19T01:27:40;5.50;54.60
1351;DHT22;669;50.206;9.998;2023-11-19T01:30:11;5.50;54.60
1351;DHT22;669;50.206;9.998;2023-11-19T01:32:40;5.50;54.70
1351;DHT22;669;50.206;9.998;2023-11-19T01:35:08;5.50;54.60
1351;DHT22;669;50.206;9.998;2023-11-19T01:37:36;5.50;54.70
1351;DHT22;669;50.206;9.998;2023-11-19T01:40:05;5.50;54.70
1351;DHT22;669;50.206;9.998;2023-11-19T01:42:36;5.50;54.60
1351;DHT22;669;50.206;9.998;2023-11-19T01:45:06;5.50;54.70
1351;DHT22;669;50.206;9.998;2023-11-19T01:47:36;5.60;54.80
1351;DHT22;669;50.206;9.998;2023-11-19T01:50:06;5.50;54.70
1351;DHT22;669;50.206;9.998;2023-11-19T01:52:35;5.50;54.80
1351;DHT22;669;50.206;9.998;2023-11-19T01:55:05;5.50;54.80
1351;DHT22;669;50.206;9.998;2023-11-19T01:57:35;5.60;54.90
1351;DHT22;669;50.206;9.998;2023-11-19T02:00:06;5.50;54.80
1351;DHT22;669;50.206;9.998;2023-11-19T02:02:39;5.50;54.80
1351;DHT22;669;50.206;9.998;2023-11-19T02:05:08;5.60;54.90
1351;DHT22;669;50.206;9.998;2023-11-19T02:07:36;5.60;54.90
1351;DHT22;669;50.206;9.998;2023-11-19T02:10:05;5.60;54.90
1351;DHT22;669;50.206;9.998;2023-11-19T02:12:35;5.60;54.90
1351;DHT22;669;50.206;9.998;2023-11-19T02:15:03;5.60;54.90
1351;DHT22;669;50.206;9.998;2023-11-19T02:17:31;5.60;54.90
1351;DHT22;669;50.206;9.998;2023-11-19T02:20:02;5.60;54.90
1351;DHT22;669;50.206;9.998;2023-11-19T02:22:33;5.60;54.90
1351;DHT22;669;50.206;9.998;2023-11-19T02:25:04;5.60;54.90
1351;DHT22;669;50.206;9.998;2023-11-19T02:27:53;5.50;54.90
1351;DHT22;669;50.206;9.998;2023-11-19T02:30:23;5.60;55.00
1351;DHT22;669;50.206;9.998;2023-11-19T02:32:53;5.60;55.00
1351;DHT22;669;50.206;9.998;2023-11-19T02:35:24;5.60;55.00
1351;DHT22;669;50.206;9.998;2023-11-19T02:37:53;5.60;55.00
1351;DHT22;669;50.206;9.998;2023-11-19T02:40:21;5.60;55.00
1351;DHT22;669;50.206;9.998;2023-11-19T02:42:52;5.60;55.00
1351;DHT22;669;50.206;9.998;2023-11-19T02:45:22;5.70;55.20
1351;DHT22;669;50.206;9.998;2023-11-19T02:47:50;5.70;55.20
1351;DHT22;669;50.206;9.998;2023-11-19T02:50:21;5.60;55.10
1351;DHT22;669;50.206;9.998;2023-11-19T02:52:53;5.70;55.20
1351;DHT22;669;50.206;9.998;2023-11-19T02:55:24;5.70;55.20
1351;DHT22;669;50.206;9.998;2023-11-19T02:57:56;5.70;55.20
1351;DHT22;669;50.206;9.998;2023-11-19T03:00:26;5.70;55.20
1351;DHT22;669;50.206;9.998;2023-11-19T03:03:03;5.70;55.20
1351;DHT22;669;50.206;9.998;2023-11-19T03:05:45;5.70;55.20
1351;DHT22;669;50.206;9.998;2023-11-19T03:08:14;5.70;55.20
1351;DHT22;669;50.206;9.998;2023-11-19T03:10:49;5.70;55.20
1351;DHT22;669;50.206;9.998;2023-11-19T03:13:19;5.60;55.10
1351;DHT22;669;50.206;9.998;2023-11-19T03:15:47;5.60;55.10
1351;DHT22;669;50.206;9.998;2023-11-19T03:18:15;5.60;55.20
1351;DHT22;669;50.206;9.998;2023-11-19T03:20:43;5.60;55.20
1351;DHT22;669;50.206;9.998;2023-11-19T03:23:11;5.70;55.20
1351;DHT22;669;50.206;9.998;2023-11-19T03:25:39;5.60;55.30
1351;DHT22;669;50.206;9.998;2023-11-19T03:28:07;5.60;55.20
1351;DHT22;669;50.206;9.998;2023-11-19T03:30:36;5.70;55.20
1351;DHT22;669;50.206;9.998;2023-11-19T03:33:04;5.70;55.30
1351;DHT22;669;50.206;9.998;2023-11-19T03:35:33;5.60;55.30
1351;DHT22;669;50.206;9.998;2023-11-19T03:38:00;5.60;55.20
1351;DHT22;669;50.206;9.998;2023-11-19T03:40:29;5.60;55.20
1351;DHT22;669;50.206;9.998;2023-11-19T03:42:57;5.70;55.20
1351;DHT22;669;50.206;9.998;2023-11-19T03:45:25;5.60;55.20
1351;DHT22;669;50.206;9.998;2023-11-19T03:47:54;5.60;55.20
1351;DHT22;669;50.206;9.998;2023-11-19T03:50:22;5.60;55.20
1351;DHT22;669;50.206;9.998;2023-11-19T03:52:50;5.70;55.30
1351;DHT22;669;50.206;9.998;2023-11-19T03:55:19;5.60;55.20
1351;DHT22;669;50.206;9.998;2023-11-19T03:57:47;5.60;55.30
1351;DHT22;669;50.206;9.998;2023-11-19T04:00:15;5.60;56.00
1351;DHT22;669;50.206;9.998;2023-11-19T04:02:43;5.70;55.30
1351;DHT22;669;50.206;9.998;2023-11-19T04:05:15;5.60;55.30
1351;DHT22;669;50.206;9.998;2023-11-19T04:07:45;5.70;55.30
1351;DHT22;669;50.206;9.998;2023-11-19T04:10:13;5.70;55.40
1351;DHT22;669;50.206;9.998;2023-11-19T04:12:42;5.70;55.40
1351;DHT22;669;50.206;9.998;2023-11-19T04:15:11;5.70;55.40
1351;DHT22;669;50.206;9.998;2023-11-19T04:17:39;5.70;55.40
1351;DHT22;669;50.206;9.998;2023-11-19T04:20:08;5.70;55.40
1351;DHT22;669;50.206;9.998;2023-11-19T04:22:40;5.70;55.40
1351;DHT22;669;50.206;9.998;2023-11-19T04:25:08;5.70;55.40
1351;DHT22;669;50.206;9.998;2023-11-19T04:27:37;5.80;55.50
1351;DHT22;669;50.206;9.998;2023-11-19T04:30:06;5.70;55.40
1351;DHT22;669;50.206;9.998;2023-11-19T04:32:38;5.80;55.50
1351;DHT22;669;50.206;9.998;2023-11-19T04:35:07;5.80;55.50
1351;DHT22;669;50.206;9.998;2023-11-19T04:37:35;5.80;55.60
1351;DHT22;669;50.206;9.998;2023-11-19T04:40:06;5.80;55.60
1351;DHT22;669;50.206;9.998;2023-11-19T04:42:34;5.80;55.60
1351;DHT22;669;50.206;9.998;2023-11-19T04:45:03;5.80;55.60
1351;DHT22;669;50.206;9.998;2023-11-19T04:47:32;5.80;55.60
1351;DHT22;669;50.206;9.998;2023-11-19T04:50:01;5.80;55.60
1351;DHT22;669;50.206;9.998;2023-11-19T04:52:29;5.80;55.60
1351;DHT22;669;50.206;9.998;2023-11-19T04:54:57;5.80;55.60
1351;DHT22;669;50.206;9.998;2023-11-19T04:57:27;5.80;55.60
1351;DHT22;669;50.206;9.998;2023-11-19T04:59:55;5.80;55.60
1351;DHT22;669;50.206;9.998;2023-11-19T05:02:23;5.90;55.70
1351;DHT22;669;50.206;9.998;2023-11-19T05:04:51;5.90;55.70
1351;DHT22;669;50.206;9.998;2023-11-19T05:07:19;5.90;55.70
1351;DHT22;669;50.206;9.998;2023-11-19T05:09:47;5.90;55.70
1351;DHT22;669;50.206;9.998;2023-11-19T05:12:15;6.00;55.80
1351;DHT22;669;50.206;9.998;2023-11-19T05:14:44;6.00;55.80
1351;DHT22;669;50.206;9.998;2023-11-19T05:17:17;6.00;55.80
1351;DHT22;669;50.206;9.998;2023-11-19T05:19:45;6.00;55.80
1351;DHT22;669;50.206;9.998;2023-11-19T05:22:14;6.10;55.90
1351;DHT22;669;50.206;9.998;2023-11-19T05:24:42;6.10;55.90
1351;DHT22;669;50.206;9.998;2023-11-19T05:27:10;6.10;55.90
1351;DHT22;669;50.206;9.998;2023-11-19T05:29:40;6.10;55.90
1351;DHT22;669;50.206;9.998;2023-11-19T05:32:09;6.20;56.00
1351;DHT22;669;50.206;9.998;2023-11-19T05:34:38;6.20;56.00
1351;DHT22;669;50.206;9.998;2023-11-19T05:37:18;6.20;56.00
1351;DHT22;669;50.206;9.998;2023-11-19T05:39:46;6.30;56.10
1351;DHT22;669;50.206;9.998;2023-11-19T05:42:14;6.20;56.00
1351;DHT22;669;50.206;9.998;2023-11-19T05:44:42;6.30;56.10
1351;DHT22;669;50.206;9.998;2023-11-19T05:47:11;6.30;56.10
1351;DHT22;669;50.206;9.998;2023-11-19T05:49:39;6.30;56.10
1351;DHT22;669;50.206;9.998;2023-11-19T05:52:07;6.30;56.10
1351;DHT22;669;50.206;9.998;2023-11-19T05:54:36;6.30;56.10
1351;DHT22;669;50.206;9.998;2023-11-19T05:57:05;6.30;56.20
1351;DHT22;669;50.206;9.998;2023-11-19T05:59:33;6.30;56.20
1351;DHT22;669;50.206;9.998;2023-11-19T06:02:03;6.30;56.20
1351;DHT22;669;50.206;9.998;2023-11-19T06:04:32;6.30;56.20
1351;DHT22;669;50.206;9.998;2023-11-19T06:07:00;6.30;56.20
1351;DHT22;669;50.206;9.998;2023-11-19T06:09:28;6.30;56.20
1351;DHT22;669;50.206;9.998;2023-11-19T06:11:56;6.30;56.20
1351;DHT22;669;50.206;9.998;2023-11-19T06:14:24;6.40;56.30
1351;DHT22;669;50.206;9.998;2023-11-19T06:16:52;6.40;56.20
1351;DHT22;669;50.206;9.998;2023-11-19T06:19:20;6.40;56.30
1351;DHT22;669;50.206;9.998;2023-11-19T06:21:49;6.40;56.20
1351;DHT22;669;50.206;9.998;2023-11-19T06:24:17;6.40;56.20
1351;DHT22;669;50.206;9.998;2023-11-19T06:26:45;6.50;56.30
1351;DHT22;669;50.206;9.998;2023-11-19T06:29:13;6.50;56.40
1351;DHT22;669;50.206;9.998;2023-11-19T06:31:45;6.50;56.30
1351;DHT22;669;50.206;9.998;2023-11-19T06:34:15;6.50;57.00
1351;DHT22;669;50.206;9.998;2023-11-19T06:36:43;6.50;56.40
1351;DHT22;669;50.206;9.998;2023-11-19T06:39:13;6.50;56.30
1351;DHT22;669;50.206;9.998;2023-11-19T06:41:44;6.60;56.50
1351;DHT22;669;50.206;9.998;2023-11-19T06:44:13;6.60;56.40
1351;DHT22;669;50.206;9.998;2023-11-19T06:46:41;6.60;56.40
1351;DHT22;669;50.206;9.998;2023-11-19T06:49:09;6.60;56.40
1351;DHT22;669;50.206;9.998;2023-11-19T06:51:41;6.60;56.40
1351;DHT22;669;50.206;9.998;2023-11-19T06:54:10;6.70;56.40
1351;DHT22;669;50.206;9.998;2023-11-19T06:56:39;6.70;56.20
1351;DHT22;669;50.206;9.998;2023-11-19T06:59:09;6.70;56.20
1351;DHT22;669;50.206;9.998;2023-11-19T07:01:37;6.80;56.30
1351;DHT22;669;50.206;9.998;2023-11-19T07:04:05;6.80;56.10
1351;DHT22;669;50.206;9.998;2023-11-19T07:06:36;6.90;56.10
1351;DHT22;669;50.206;9.998;2023-11-19T07:09:04;6.90;56.00
1351;DHT22;669;50.206;9.998;2023-11-19T07:11:38;7.10;55.80
1351;DHT22;669;50.206;9.998;2023-11-19T07:14:08;7.20;55.40
1351;DHT22;669;50.206;9.998;2023-11-19T07:16:36;7.40;55.80
1351;DHT22;669;50.206;9.998;2023-11-19T07:19:05;7.50;55.30
1351;DHT22;669;50.206;9.998;2023-11-19T07:21:33;7.70;55.40
1351;DHT22;669;50.206;9.998;2023-11-19T07:24:02;7.70;55.50
1351;DHT22;669;50.206;9.998;2023-11-19T07:26:31;7.80;56.90
1351;DHT22;669;50.206;9.998;2023-11-19T07:28:59;7.80;56.70
1351;DHT22;669;50.206;9.998;2023-11-19T07:31:29;7.80;56.90
1351;DHT22;669;50.206;9.998;2023-11-19T07:33:57;7.80;57.00
1351;DHT22;669;50.206;9.998;2023-11-19T07:36:25;7.80;57.10
1351;DHT22;669;50.206;9.998;2023-11-19T07:38:53;7.90;57.20
1351;DHT22;669;50.206;9.998;2023-11-19T07:41:24;8.00;56.90
1351;DHT22;669;50.206;9.998;2023-11-19T07:43:52;8.30;56.60
1351;DHT22;669;50.206;9.998;2023-11-19T07:46:21;8.60;56.80
1351;DHT22;669;50.206;9.998;2023-11-19T07:48:50;8.80;57.50
1351;DHT22;669;50.206;9.998;2023-11-19T07:51:19;8.90;58.10
1351;DHT22;669;50.206;9.998;2023-11-19T07:53:47;9.00;58.60
1351;DHT22;669;50.206;9.998;2023-11-19T07:56:15;9.00;58.70
1351;DHT22;669;50.206;9.998;2023-11-19T07:58:43;9.10;59.30
1351;DHT22;669;50.206;9.998;2023-11-19T08:01:11;9.10;59.60
1351;DHT22;669;50.206;9.998;2023-11-19T08:03:40;9.20;59.70
1351;DHT22;669;50.206;9.998;2023-11-19T08:06:26;9.30;59.30
1351;DHT22;669;50.206;9.998;2023-11-19T08:08:54;9.40;59.50
1351;DHT22;669;50.206;9.998;2023-11-19T08:11:22;9.50;59.70
1351;DHT22;669;50.206;9.998;2023-11-19T08:13:50;9.70;59.70
1351;DHT22;669;50.206;9.998;2023-11-19T08:16:18;9.80;60.10
1351;DHT22;669;50.206;9.998;2023-11-19T08:18:46;9.90;60.30
1351;DHT22;669;50.206;9.998;2023-11-19T08:21:14;10.00;59.50
1351;DHT22;669;50.206;9.998;2023-11-19T08:23:44;10.10;60.30
1351;DHT22;669;50.206;9.998;2023-11-19T08:26:12;10.10;60.80
1351;DHT22;669;50.206;9.998;2023-11-19T08:28:40;10.20;61.00
1351;DHT22;669;50.206;9.998;2023-11-19T08:31:08;10.30;61.40
1351;DHT22;669;50.206;9.998;2023-11-19T08:33:36;10.40;61.60
1351;DHT22;669;50.206;9.998;2023-11-19T08:36:04;10.50;61.70
1351;DHT22;669;50.206;9.998;2023-11-19T08:38:33;10.60;61.80
1351;DHT22;669;50.206;9.998;2023-11-19T08:41:02;10.70;61.80
1351;DHT22;669;50.206;9.998;2023-11-19T08:43:30;10.80;61.30
1351;DHT22;669;50.206;9.998;2023-11-19T08:45:58;10.90;60.20
1351;DHT22;669;50.206;9.998;2023-11-19T08:48:26;11.00;60.30
1351;DHT22;669;50.206;9.998;2023-11-19T08:50:54;10.90;58.40
1351;DHT22;669;50.206;9.998;2023-11-19T08:53:22;11.00;58.10
1351;DHT22;669;50.206;9.998;2023-11-19T08:55:50;11.10;57.00
1351;DHT22;669;50.206;9.998;2023-11-19T08:58:20;11.20;55.60
1351;DHT22;669;50.206;9.998;2023-11-19T09:00:48;11.40;55.50
1351;DHT22;669;50.206;9.998;2023-11-19T09:03:16;11.50;54.10
1351;DHT22;669;50.206;9.998;2023-11-19T09:05:44;11.50;52.50
1351;DHT22;669;50.206;9.998;2023-11-19T09:08:12;11.40;51.60
1351;DHT22;669;50.206;9.998;2023-11-19T09:10:40;11.40;50.10
1351;DHT22;669;50.206;9.998;2023-11-19T09:13:08;11.50;49.40
1351;DHT22;669;50.206;9.998;2023-11-19T09:15:38;11.50;50.60
1351;DHT22;669;50.206;9.998;2023-11-19T09:18:06;11.50;51.70
1351;DHT22;669;50.206;9.998;2023-11-19T09:20:34;11.60;49.10
1351;DHT22;669;50.206;9.998;2023-11-19T09:23:05;11.60;48.30
1351;DHT22;669;50.206;9.998;2023-11-19T09:25:35;11.60;48.50
1351;DHT22;669;50.206;9.998;2023-11-19T09:28:06;11.60;47.10
1351;DHT22;669;50.206;9.998;2023-11-19T09:30:35;11.60;44.70
1351;DHT22;669;50.206;9.998;2023-11-19T09:33:05;11.60;41.60
1351;DHT22;669;50.206;9.998;2023-11-19T09:35:33;11.60;39.60
1351;DHT22;669;50.206;9.998;2023-11-19T09:38:01;11.70;39.60
1351;DHT22;669;50.206;9.998;2023-11-19T09:40:31;12.00;35.60
1351;DHT22;669;50.206;9.998;2023-11-19T09:42:59;12.00;33.80
1351;DHT22;669;50.206;9.998;2023-11-19T09:45:28;12.00;31.10
1351;DHT22;669;50.206;9.998;2023-11-19T09:47:57;12.00;28.80
1351;DHT22;669;50.206;9.998;2023-11-19T09:50:29;12.00;30.00
1351;DHT22;669;50.206;9.998;2023-11-19T09:52:57;12.00;29.50
1351;DHT22;669;50.206;9.998;2023-11-19T09:55:25;12.00;25.00
1351;DHT22;669;50.206;9.998;2023-11-19T09:57:53;12.00;24.80
1351;DHT22;669;50.206;9.998;2023-11-19T10:00:21;11.90;24.30
1351;DHT22;669;50.206;9.998;2023-11-19T10:02:50;11.80;25.00
1351;DHT22;669;50.206;9.998;2023-11-19T10:05:20;11.80;24.80
1351;DHT22;669;50.206;9.998;2023-11-19T10:07:51;11.80;26.00
1351;DHT22;669;50.206;9.998;2023-11-19T10:10:19;11.70;26.50
1351;DHT22;669;50.206;9.998;2023-11-19T10:12:47;11.80;27.30
1351;DHT22;669;50.206;9.998;2023-11-19T10:15:20;11.80;26.20
1351;DHT22;669;50.206;9.998;2023-11-19T10:17:49;12.00;27.70
1351;DHT22;669;50.206;9.998;2023-11-19T10:20:17;12.30;27.30
1351;DHT22;669;50.206;9.998;2023-11-19T10:22:45;12.70;26.70
1351;DHT22;669;50.206;9.998;2023-11-19T10:25:24;12.90;21.70
1351;DHT22;669;50.206;9.998;2023-11-19T10:27:53;13.10;17.10
1351;DHT22;669;50.206;9.998;2023-11-19T10:30:22;13.10;16.60
1351;DHT22;669;50.206;9.998;2023-11-19T10:33:09;13.10;16.20
1351;DHT22;669;50.206;9.998;2023-11-19T10:35:51;13.50;16.30
1351;DHT22;669;50.206;9.998;2023-11-19T10:38:23;13.80;13.20
1351;DHT22;669;50.206;9.998;2023-11-19T10:40:53;13.80;14.00
1351;DHT22;669;50.206;9.998;2023-11-19T10:43:22;13.90;13.40
1351;DHT22;669;50.206;9.998;2023-11-19T10:45:51;13.90;13.80
1351;DHT22;669;50.206;9.998;2023-11-19T10:48:19;14.00;12.00
1351;DHT22;669;50.206;9.998;2023-11-19T10:50:53;14.00;11.90
1351;DHT22;669;50.206;9.998;2023-11-19T10:53:23;13.70;13.00
1351;DHT22;669;50.206;9.998;2023-11-19T10:55:57;13.70;12.80
1351;DHT22;669;50.206;9.998;2023-11-19T10:58:28;13.70;13.70
1351;DHT22;669;50.206;9.998;2023-11-19T11:01:00;13.70;12.60
1351;DHT22;669;50.206;9.998;2023-11-19T11:03:39;13.90;11.20
1351;DHT22;669;50.206;9.998;2023-11-19T11:06:08;13.90;11.30
1351;DHT22;669;50.206;9.998;2023-11-19T11:08:37;13.90;9.50
1351;DHT22;669;50.206;9.998;2023-11-19T11:11:08;13.80;9.20
1351;DHT22;669;50.206;9.998;2023-11-19T11:13:37;13.70;8.50
1351;DHT22;669;50.206;9.998;2023-11-19T11:16:09;13.60;10.00
1351;DHT22;669;50.206;9.998;2023-11-19T11:18:38;13.70;8.30
1351;DHT22;669;50.206;9.998;2023-11-19T11:21:08;13.80;8.00
1351;DHT22;669;50.206;9.998;2023-11-19T11:24:03;13.90;7.20
1351;DHT22;669;50.206;9.998;2023-11-19T11:26:59;14.00;5.70
1351;DHT22;669;50.206;9.998;2023-11-19T11:29:40;14.10;6.70
1351;DHT22;669;50.206;9.998;2023-11-19T11:32:19;14.10;4.40
1351;DHT22;669;50.206;9.998;2023-11-19T11:35:02;14.30;3.00
1351;DHT22;669;50.206;9.998;2023-11-19T11:37:39;14.40;1.60
1351;DHT22;669;50.206;9.998;2023-11-19T11:40:14;14.50;1.00
1351;DHT22;669;50.206;9.998;2023-11-19T11:42:44;14.50;1.00
1351;DHT22;669;50.206;9.998;2023-11-19T11:45:13;14.40;1.00
1351;DHT22;669;50.206;9.998;2023-11-19T11:48:08;14.40;1.00
1351;DHT22;669;50.206;9.998;2023-11-19T11:50:48;14.50;1.00
1351;DHT22;669;50.206;9.998;2023-11-19T11:53:18;14.70;1.00
1351;DHT22;669;50.206;9.998;2023-11-19T11:55:57;15.00;1.00
1351;DHT22;669;50.206;9.998;2023-11-19T11:58:30;15.30;1.00
1351;DHT22;669;50.206;9.998;2023-11-19T12:01:00;15.40;1.00
1351;DHT22;669;50.206;9.998;2023-11-19T12:03:29;15.10;1.00
1351;DHT22;669;50.206;9.998;2023-11-19T12:05:59;14.90;1.00
1351;DHT22;669;50.206;9.998;2023-11-19T12:08:28;14.50;1.00
1351;DHT22;669;50.206;9.998;2023-11-19T12:10:58;14.20;1.00
1351;DHT22;669;50.206;9.998;2023-11-19T12:13:47;14.10;1.00
1351;DHT22;669;50.206;9.998;2023-11-19T12:16:15;14.40;1.00
1351;DHT22;669;50.206;9.998;2023-11-19T12:18:44;14.80;1.00
1351;DHT22;669;50.206;9.998;2023-11-19T12:21:27;15.20;1.00
1351;DHT22;669;50.206;9.998;2023-11-19T12:23:58;15.60;1.00
1351;DHT22;669;50.206;9.998;2023-11-19T12:26:32;15.60;1.00
1351;DHT22;669;50.206;9.998;2023-11-19T12:29:02;15.60;1.00
1351;DHT22;669;50.206;9.998;2023-11-19T12:31:35;15.80;1.00
1351;DHT22;669;50.206;9.998;2023-11-19T12:34:07;16.20;1.00
1351;DHT22;669;50.206;9.998;2023-11-19T12:36:40;16.30;1.00
1351;DHT22;669;50.206;9.998;2023-11-19T12:39:11;16.20;1.00
1351;DHT22;669;50.206;9.998;2023-11-19T12:41:52;15.80;1.00
1351;DHT22;669;50.206;9.998;2023-11-19T12:44:22;15.20;1.00
1351;DHT22;669;50.206;9.998;2023-11-19T12:47:04;15.00;1.00
1351;DHT22;669;50.206;9.998;2023-11-19T12:49:34;14.90;1.00
1351;DHT22;669;50.206;9.998;2023-11-19T12:52:10;14.90;1.00
1351;DHT22;669;50.206;9.998;2023-11-19T12:54:39;15.10;1.00
1351;DHT22;669;50.206;9.998;2023-11-19T12:57:07;15.40;1.00
1351;DHT22;669;50.206;9.998;2023-11-19T12:59:36;15.60;1.00
1351;DHT22;669;50.206;9.998;2023-11-19T13:02:04;15.90;1.00
1351;DHT22;669;50.206;9.998;2023-11-19T13:04:34;16.00;1.00
1351;DHT22;669;50.206;9.998;2023-11-19T13:07:02;16.10;1.00
1351;DHT22;669;50.206;9.998;2023-11-19T13:09:32;16.10;1.00
1351;DHT22;669;50.206;9.998;2023-11-19T13:12:12;15.80;1.00
1351;DHT22;669;50.206;9.998;2023-11-19T13:14:42;15.70;1.00
1351;DHT22;669;50.206;9.998;2023-11-19T13:17:15;15.80;1.00
1351;DHT22;669;50.206;9.998;2023-11-19T13:19:43;15.70;1.00
1351;DHT22;669;50.206;9.998;2023-11-19T13:22:14;15.60;1.00
1351;DHT22;669;50.206;9.998;2023-11-19T13:24:42;15.30;1.00
1351;DHT22;669;50.206;9.998;2023-11-19T13:27:10;15.10;1.00
1351;DHT22;669;50.206;9.998;2023-11-19T13:29:38;15.00;1.00
1351;DHT22;669;50.206;9.998;2023-11-19T13:32:08;15.00;1.00
1351;DHT22;669;50.206;9.998;2023-11-19T13:34:36;14.90;1.00
1351;DHT22;669;50.206;9.998;2023-11-19T13:37:04;14.60;1.00
1351;DHT22;669;50.206;9.998;2023-11-19T13:39:32;14.60;1.00
1351;DHT22;669;50.206;9.998;2023-11-19T13:42:00;14.70;1.00
1351;DHT22;669;50.206;9.998;2023-11-19T13:44:31;14.70;1.00
1351;DHT22;669;50.206;9.998;2023-11-19T13:47:00;14.70;1.00
1351;DHT22;669;50.206;9.998;2023-11-19T13:49:30;14.60;1.00
1351;DHT22;669;50.206;9.998;2023-11-19T13:51:58;14.50;1.00
1351;DHT22;669;50.206;9.998;2023-11-19T13:54:26;14.10;1.00
1351;DHT22;669;50.206;9.998;2023-11-19T13:56:55;13.90;1.00
1351;DHT22;669;50.206;9.998;2023-11-19T13:59:24;13.70;1.00
1351;DHT22;669;50.206;9.998;2023-11-19T14:01:52;13.50;1.00
1351;DHT22;669;50.206;9.998;2023-11-19T14:04:20;13.40;1.00
1351;DHT22;669;50.206;9.998;2023-11-19T14:06:50;13.50;1.00
1351;DHT22;669;50.206;9.998;2023-11-19T14:09:19;13.60;1.00
1351;DHT22;669;50.206;9.998;2023-11-19T14:11:47;13.40;1.00
1351;DHT22;669;50.206;9.998;2023-11-19T14:14:17;13.20;1.00
1351;DHT22;669;50.206;9.998;2023-11-19T14:16:45;13.00;1.00
1351;DHT22;669;50.206;9.998;2023-11-19T14:19:13;12.80;1.00
1351;DHT22;669;50.206;9.998;2023-11-19T14:21:41;12.60;1.00
1351;DHT22;669;50.206;9.998;2023-11-19T14:24:10;12.50;1.00
1351;DHT22;669;50.206;9.998;2023-11-19T14:26:38;12.30;1.00
1351;DHT22;669;50.206;9.998;2023-11-19T14:29:06;12.20;1.00
1351;DHT22;669;50.206;9.998;2023-11-19T14:31:34;12.20;1.00
1351;DHT22;669;50.206;9.998;2023-11-19T14:34:03;12.10;1.00
1351;DHT22;669;50.206;9.998;2023-11-19T14:36:31;12.00;1.00
1351;DHT22;669;50.206;9.998;2023-11-19T14:38:59;11.90;2.00
1351;DHT22;669;50.206;9.998;2023-11-19T14:41:28;11.90;2.80
1351;DHT22;669;50.206;9.998;2023-11-19T14:43:56;11.90;3.10
1351;DHT22;669;50.206;9.998;2023-11-19T14:46:24;11.80;3.60
1351;DHT22;669;50.206;9.998;2023-11-19T14:48:52;11.80;4.40
1351;DHT22;669;50.206;9.998;2023-11-19T14:51:20;11.70;4.90
1351;DHT22;669;50.206;9.998;2023-11-19T14:53:48;11.60;5.40
1351;DHT22;669;50.206;9.998;2023-11-19T14:56:16;11.50;5.90
1351;DHT22;669;50.206;9.998;2023-11-19T14:58:48;11.40;6.80
1351;DHT22;669;50.206;9.998;2023-11-19T15:01:17;11.40;7.10
1351;DHT22;669;50.206;9.998;2023-11-19T15:03:46;11.30;7.60
1351;DHT22;669;50.206;9.998;2023-11-19T15:06:17;11.30;8.00
1351;DHT22;669;50.206;9.998;2023-11-19T15:08:45;11.20;8.00
1351;DHT22;669;50.206;9.998;2023-11-19T15:11:13;11.20;8.50
1351;DHT22;669;50.206;9.998;2023-11-19T15:13:41;11.10;8.50
1351;DHT22;669;50.206;9.998;2023-11-19T15:16:10;11.10;9.10
1351;DHT22;669;50.206;9.998;2023-11-19T15:18:40;11.00;9.70
1351;DHT22;669;50.206;9.998;2023-11-19T15:21:08;10.90;10.40
1351;DHT22;669;50.206;9.998;2023-11-19T15:23:36;10.80;10.60
1351;DHT22;669;50.206;9.998;2023-11-19T15:26:05;10.70;11.20
1351;DHT22;669;50.206;9.998;2023-11-19T15:28:34;10.70;11.40
1351;DHT22;669;50.206;9.998;2023-11-19T15:31:02;10.60;11.60
1351;DHT22;669;50.206;9.998;2023-11-19T15:33:32;10.60;11.80
1351;DHT22;669;50.206;9.998;2023-11-19T15:36:00;10.50;11.70
1351;DHT22;669;50.206;9.998;2023-11-19T15:38:30;10.40;11.70
1351;DHT22;669;50.206;9.998;2023-11-19T15:40:57;10.40;11.60
1351;DHT22;669;50.206;9.998;2023-11-19T15:43:25;10.30;11.90
1351;DHT22;669;50.206;9.998;2023-11-19T15:45:53;10.20;11.80
1351;DHT22;669;50.206;9.998;2023-11-19T15:48:21;10.20;11.60
1351;DHT22;669;50.206;9.998;2023-11-19T15:50:50;10.20;11.30
1351;DHT22;669;50.206;9.998;2023-11-19T15:53:18;10.20;10.70
1351;DHT22;669;50.206;9.998;2023-11-19T15:55:46;10.20;10.20
1351;DHT22;669;50.206;9.998;2023-11-19T15:58:14;10.20;9.60
1351;DHT22;669;50.206;9.998;2023-11-19T16:00:42;10.30;8.90
1351;DHT22;669;50.206;9.998;2023-11-19T16:03:13;10.30;8.00
1351;DHT22;669;50.206;9.998;2023-11-19T16:05:41;10.30;7.90
1351;DHT22;669;50.206;9.998;2023-11-19T16:08:10;10.40;7.40
1351;DHT22;669;50.206;9.998;2023-11-19T16:10:39;10.40;6.90
1351;DHT22;669;50.206;9.998;2023-11-19T16:13:09;10.40;6.70
1351;DHT22;669;50.206;9.998;2023-11-19T16:15:37;10.40;6.30
1351;DHT22;669;50.206;9.998;2023-11-19T16:18:05;10.40;6.20
1351;DHT22;669;50.206;9.998;2023-11-19T16:20:36;10.40;6.20
1351;DHT22;669;50.206;9.998;2023-11-19T16:23:04;10.40;6.30
1351;DHT22;669;50.206;9.998;2023-11-19T16:25:33;10.30;6.50
1351;DHT22;669;50.206;9.998;2023-11-19T16:28:03;10.30;6.60
1351;DHT22;669;50.206;9.998;2023-11-19T16:30:34;10.40;6.60
1351;DHT22;669;50.206;9.998;2023-11-19T16:33:02;10.40;6.50
1351;DHT22;669;50.206;9.998;2023-11-19T16:35:38;10.40;6.60
1351;DHT22;669;50.206;9.998;2023-11-19T16:38:06;10.40;6.70
1351;DHT22;669;50.206;9.998;2023-11-19T16:40:36;10.30;6.90
1351;DHT22;669;50.206;9.998;2023-11-19T16:43:05;10.30;7.20
1351;DHT22;669;50.206;9.998;2023-11-19T16:45:33;10.30;7.40
1351;DHT22;669;50.206;9.998;2023-11-19T16:48:01;10.20;7.70